createdAt,value
2023-02-11T00:00:19.231Z,60.22
2023-02-11T00:02:48.172Z,62.00
2023-02-11T00:05:16.063Z,60.44
2023-02-11T00:07:44.060Z,60.48
2023-02-11T00:10:11.947Z,61.36
2023-02-11T00:12:40.049Z,61.19
2023-02-11T00:15:18.008Z,61.92
2023-02-11T00:17:48.383Z,61.93
2023-02-11T00:20:16.879Z,64.30
2023-02-11T00:22:45.377Z,69.67
2023-02-11T00:25:13.831Z,68.85
2023-02-11T00:27:41.793Z,66.40
2023-02-11T00:30:14.129Z,65.47
2023-02-11T00:32:43.412Z,65.05
2023-02-11T00:35:11.271Z,63.76
2023-02-11T00:37:41.092Z,62.95
2023-02-11T00:40:11.128Z,61.36
2023-02-11T00:42:39.245Z,61.16
2023-02-11T00:45:11.745Z,62.61
2023-02-11T00:47:42.484Z,62.18
2023-02-11T00:50:10.358Z,59.74
2023-02-11T00:52:39.713Z,60.20
2023-02-11T00:55:08.224Z,60.31
2023-02-11T00:57:40.693Z,60.25
2023-02-11T01:00:11.237Z,61.40
2023-02-11T01:02:39.174Z,62.25
2023-02-11T01:05:07.328Z,61.62
2023-02-11T01:07:36.508Z,62.65
2023-02-11T01:10:06.758Z,62.74
2023-02-11T01:12:37.820Z,62.56
2023-02-11T01:15:09.915Z,61.05
2023-02-11T01:17:37.774Z,60.46
2023-02-11T01:20:08.395Z,60.42
2023-02-11T01:22:39.790Z,60.64
2023-02-11T01:25:08.161Z,59.37
2023-02-11T01:27:37.631Z,59.62
2023-02-11T01:30:14.673Z,59.87
2023-02-11T01:32:48.686Z,59.84
2023-02-11T01:35:18.774Z,59.23
2023-02-11T01:37:47.430Z,58.57
2023-02-11T01:40:18.191Z,59.69
2023-02-11T01:42:49.372Z,58.54
2023-02-11T01:45:42.977Z,58.30
2023-02-11T01:48:25.111Z,60.30
2023-02-11T01:51:00.784Z,60.40
2023-02-11T01:53:48.854Z,60.40
2023-02-11T01:56:46.801Z,58.71
2023-02-11T01:59:22.145Z,58.54
2023-02-11T02:01:59.592Z,58.70
2023-02-11T02:04:43.005Z,58.66
2023-02-11T02:07:19.761Z,58.56
2023-02-11T02:09:57.734Z,59.56
2023-02-11T02:12:26.785Z,59.36
2023-02-11T02:15:32.588Z,58.84
2023-02-11T02:18:07.336Z,59.57
2023-02-11T02:21:02.569Z,60.14
2023-02-11T02:24:16.528Z,60.83
2023-02-11T02:57:43.818Z,60.00
2023-02-11T03:00:30.366Z,60.68
2023-02-11T03:03:28.414Z,61.09
2023-02-11T03:06:05.509Z,60.52
2023-02-11T03:08:44.784Z,59.76
2023-02-11T03:11:17.634Z,59.34
2023-02-11T03:13:48.711Z,60.54
2023-02-11T03:16:29.470Z,61.46
2023-02-11T03:19:12.797Z,61.32
2023-02-11T03:21:44.655Z,61.14
2023-02-11T03:24:26.742Z,61.24
2023-02-11T03:27:26.825Z,61.28
2023-02-11T03:30:19.748Z,63.02
2023-02-11T03:32:55.856Z,62.47
2023-02-11T03:35:33.755Z,62.53
2023-02-11T03:38:14.199Z,61.52
2023-02-11T03:40:45.901Z,61.72
2023-02-11T03:43:19.621Z,62.49
2023-02-11T03:45:52.132Z,62.56
2023-02-11T03:48:30.998Z,62.76
2023-02-11T03:51:03.815Z,61.63
2023-02-11T03:53:31.825Z,64.11
2023-02-11T03:56:07.801Z,62.36
2023-02-11T03:58:36.764Z,63.00
2023-02-11T04:01:09.880Z,63.86
2023-02-11T04:03:38.052Z,63.01
2023-02-11T04:06:06.766Z,62.53
2023-02-11T04:08:35.096Z,61.56
2023-02-11T04:11:06.951Z,61.31
2023-02-11T04:13:35.458Z,63.10
2023-02-11T04:16:07.878Z,63.33
2023-02-11T04:18:35.931Z,61.77
2023-02-11T04:21:03.815Z,62.91
2023-02-11T04:23:33.744Z,62.00
2023-02-11T04:26:01.692Z,62.27
2023-02-11T04:29:01.250Z,62.37
2023-02-11T04:31:29.370Z,62.63
2023-02-11T04:33:57.789Z,63.04
2023-02-11T04:36:26.212Z,62.78
2023-02-11T04:38:56.895Z,62.11
2023-02-11T04:41:25.483Z,61.85
2023-02-11T04:46:47.038Z,61.34
2023-02-11T04:49:16.419Z,62.63
2023-02-11T04:51:48.931Z,61.53
2023-02-11T04:54:18.684Z,63.25
2023-02-11T04:56:46.781Z,63.03
2023-02-11T04:59:14.712Z,63.29
2023-02-11T05:01:43.273Z,63.31
2023-02-11T05:04:15.091Z,62.28
2023-02-11T05:06:44.723Z,63.06
2023-02-11T05:09:14.583Z,63.07
2023-02-11T05:11:47.777Z,61.90
2023-02-11T05:14:15.602Z,63.12
2023-02-11T05:16:43.519Z,62.86
2023-02-11T05:19:14.780Z,62.86
2023-02-11T05:21:56.711Z,62.66
2023-02-11T05:24:30.547Z,61.85
2023-02-11T05:27:23.625Z,63.99
2023-02-11T05:29:52.822Z,62.02
2023-02-11T05:32:21.437Z,63.30
2023-02-11T05:34:50.544Z,64.44
2023-02-11T05:37:22.714Z,62.67
2023-02-11T05:39:51.025Z,62.96
2023-02-11T05:42:20.790Z,63.47
2023-02-11T05:44:50.819Z,63.38
2023-02-11T05:47:18.709Z,62.94
2023-02-11T05:49:48.846Z,62.40
2023-02-11T05:52:18.213Z,63.51
2023-02-11T05:54:46.177Z,64.93
2023-02-11T05:57:14.292Z,64.06
2023-02-11T05:59:42.724Z,64.44
2023-02-11T06:02:11.509Z,65.04
2023-02-11T06:04:39.509Z,65.22
2023-02-11T06:07:11.932Z,65.44
2023-02-11T06:09:39.781Z,64.62
2023-02-11T06:12:07.794Z,64.18
2023-02-11T06:14:36.079Z,65.69
2023-02-11T06:17:04.114Z,66.51
2023-02-11T06:19:33.826Z,65.11
2023-02-11T06:22:01.776Z,67.18
2023-02-11T06:24:54.759Z,67.30
2023-02-11T06:27:19.349Z,68.74
2023-02-11T06:29:48.241Z,68.61
2023-02-11T06:32:36.984Z,68.00
2023-02-11T06:35:11.948Z,68.29
2023-02-11T06:37:41.255Z,69.03
2023-02-11T06:40:11.817Z,65.98
2023-02-11T06:42:39.849Z,65.08
2023-02-11T06:45:11.790Z,64.35
2023-02-11T06:47:43.505Z,64.57
2023-02-11T06:50:14.438Z,64.74
2023-02-11T06:52:42.367Z,62.89
2023-02-11T06:55:11.561Z,63.06
2023-02-11T06:57:41.651Z,62.81
2023-02-11T07:00:10.333Z,61.65
2023-02-11T07:02:38.900Z,62.10
2023-02-11T07:05:07.571Z,61.86
2023-02-11T07:07:35.979Z,62.44
2023-02-11T07:10:04.873Z,63.59
2023-02-11T07:12:32.837Z,63.36
2023-02-11T07:15:00.769Z,61.07
2023-02-11T07:17:29.053Z,60.32
2023-02-11T07:19:58.618Z,58.74
2023-02-11T07:22:26.751Z,59.25
2023-02-11T07:24:55.107Z,58.32
2023-02-11T07:27:24.964Z,59.06
2023-02-11T07:29:53.781Z,57.05
2023-02-11T07:32:21.897Z,58.50
2023-02-11T07:34:52.523Z,60.97
2023-02-11T07:37:20.402Z,57.82
2023-02-11T07:39:48.479Z,57.62
2023-02-11T07:42:16.813Z,58.24
2023-02-11T07:44:49.259Z,58.49
2023-02-11T07:47:18.810Z,58.96
2023-02-11T07:49:47.700Z,58.46
2023-02-11T07:52:17.068Z,59.12
2023-02-11T07:54:45.052Z,58.99
2023-02-11T07:57:12.920Z,58.10
2023-02-11T07:59:40.881Z,58.89
2023-02-11T08:02:09.722Z,57.15
2023-02-11T08:04:38.730Z,57.62
2023-02-11T08:07:06.861Z,56.99
2023-02-11T08:09:39.879Z,56.33
2023-02-11T08:12:14.148Z,57.61
2023-02-11T08:14:42.839Z,58.33
2023-02-11T08:17:10.764Z,58.25
2023-02-11T08:19:39.629Z,57.36
2023-02-11T08:22:08.733Z,55.97
2023-02-11T08:24:36.611Z,56.38
2023-02-11T08:27:06.824Z,57.42
2023-02-11T08:29:35.653Z,56.51
2023-02-11T08:32:04.067Z,56.42
2023-02-11T08:34:33.773Z,56.18
2023-02-11T08:37:01.757Z,55.87
2023-02-11T08:39:30.758Z,56.91
2023-02-11T08:41:58.596Z,55.24
2023-02-11T08:44:27.788Z,55.30
2023-02-11T08:46:55.727Z,54.74
2023-02-11T08:49:27.758Z,53.74
2023-02-11T08:51:56.386Z,52.66
2023-02-11T08:54:25.949Z,50.35
2023-02-11T08:56:54.980Z,50.70
2023-02-11T08:59:23.281Z,50.69
2023-02-11T09:01:51.966Z,49.16
2023-02-11T09:04:20.141Z,50.75
2023-02-11T09:06:49.426Z,50.52
2023-02-11T09:09:18.747Z,49.80
2023-02-11T09:11:46.786Z,50.55
2023-02-11T09:14:21.792Z,48.24
2023-02-11T09:16:51.521Z,49.83
2023-02-11T09:19:21.857Z,47.78
2023-02-11T09:21:50.051Z,48.09
2023-02-11T09:24:18.869Z,48.36
2023-02-11T09:26:46.949Z,45.92
2023-02-11T09:29:14.894Z,46.85
2023-02-11T09:32:10.961Z,44.53
2023-02-11T09:34:40.501Z,54.78
2023-02-11T09:37:08.762Z,46.90
2023-02-11T09:39:38.840Z,44.23
2023-02-11T09:42:28.215Z,42.86
2023-02-11T09:48:20.485Z,43.50
2023-02-11T09:50:56.222Z,44.29
2023-02-11T09:53:32.895Z,44.12
2023-02-11T09:56:11.497Z,44.13
2023-02-11T09:58:44.615Z,43.83
2023-02-11T10:01:46.748Z,43.89
2023-02-11T10:04:33.549Z,43.06
2023-02-11T10:07:11.848Z,42.62
2023-02-11T10:09:52.301Z,42.48
2023-02-11T10:12:47.667Z,41.17
2023-02-11T10:15:18.524Z,40.41
2023-02-11T10:17:46.959Z,39.93
2023-02-11T10:20:16.916Z,40.12
2023-02-11T10:23:09.193Z,40.16
2023-02-11T10:25:40.792Z,39.55
2023-02-11T10:28:16.774Z,40.37
2023-02-11T10:31:00.265Z,40.60
2023-02-11T10:33:51.784Z,42.83
2023-02-11T10:36:25.621Z,42.29
2023-02-11T10:38:53.772Z,42.31
2023-02-11T10:41:28.709Z,41.19
2023-02-11T10:43:59.877Z,43.11
2023-02-11T10:46:34.040Z,43.69
2023-02-11T10:49:03.961Z,43.09
2023-02-11T10:51:34.237Z,42.37
2023-02-11T10:54:07.820Z,43.59
2023-02-11T10:56:38.087Z,44.02
2023-02-11T10:59:28.802Z,43.49
2023-02-11T11:02:01.268Z,43.46
2023-02-11T11:04:42.975Z,42.92
2023-02-11T11:07:27.862Z,41.20
2023-02-11T11:13:44.764Z,41.00
2023-02-11T11:16:20.421Z,40.92
2023-02-11T11:19:10.656Z,42.37
2023-02-11T11:21:43.336Z,41.19
2023-02-11T11:24:19.801Z,39.52
2023-02-11T11:26:59.563Z,40.06
2023-02-11T11:29:46.142Z,39.26
2023-02-11T11:32:24.453Z,39.33
2023-02-11T11:34:58.818Z,38.40
2023-02-11T11:37:35.326Z,37.59
2023-02-11T11:40:16.886Z,37.72
2023-02-11T11:42:44.802Z,36.39
2023-02-11T11:45:19.971Z,36.06
2023-02-11T11:48:02.266Z,36.42
2023-02-11T11:50:55.773Z,36.87
2023-02-11T11:53:41.257Z,36.42
2023-02-11T11:56:22.043Z,37.96
2023-02-11T11:58:51.872Z,35.62
2023-02-11T12:02:08.678Z,33.27
2023-02-11T12:04:56.705Z,32.41
2023-02-11T12:07:40.770Z,34.41
2023-02-11T12:10:16.036Z,34.54
2023-02-11T12:13:00.989Z,32.60
2023-02-11T12:15:47.700Z,32.57
2023-02-11T12:18:33.385Z,32.82
2023-02-11T12:21:23.110Z,33.47
2023-02-11T12:24:23.818Z,34.29
2023-02-11T12:27:11.836Z,33.94
2023-02-11T12:30:08.178Z,34.73
2023-02-11T12:33:03.862Z,35.60
2023-02-11T12:36:01.579Z,34.81
2023-02-11T12:38:48.846Z,34.93
2023-02-11T12:41:39.533Z,34.57
2023-02-11T12:45:07.204Z,35.11
2023-02-11T12:47:50.510Z,35.42
2023-02-11T12:50:38.937Z,36.62
2023-02-11T12:53:10.562Z,36.90
2023-02-11T12:59:13.044Z,36.44
2023-02-11T13:01:48.968Z,36.73
2023-02-11T13:04:33.802Z,36.81
2023-02-11T13:07:14.827Z,36.79
2023-02-11T13:10:07.942Z,35.80
2023-02-11T13:12:58.742Z,37.56
2023-02-11T13:15:30.262Z,37.20
2023-02-11T13:18:24.217Z,36.64
2023-02-11T13:21:04.228Z,37.18
2023-02-11T13:23:51.799Z,38.52
2023-02-11T13:26:50.672Z,38.40
2023-02-11T13:29:44.829Z,38.81
2023-02-11T13:32:15.832Z,37.67
2023-02-11T13:34:43.630Z,38.83
2023-02-11T13:37:32.750Z,37.36
2023-02-11T13:40:03.738Z,38.16
2023-02-11T13:45:46.923Z,37.67
2023-02-11T13:48:38.574Z,37.65
2023-02-11T13:51:10.970Z,38.75
2023-02-11T13:53:55.745Z,38.47
2023-02-11T13:59:27.789Z,39.37
2023-02-11T14:02:17.941Z,39.37
2023-02-11T14:08:39.053Z,40.11
2023-02-11T14:11:33.299Z,40.60
2023-02-11T14:14:04.185Z,39.87
2023-02-11T14:16:56.369Z,39.88
2023-02-11T14:19:47.808Z,44.99
2023-02-11T14:22:20.488Z,40.81
2023-02-11T14:25:04.784Z,38.95
2023-02-11T14:27:51.416Z,42.32
2023-02-11T14:30:35.431Z,38.87
2023-02-11T14:33:18.614Z,37.80
2023-02-11T14:36:09.807Z,37.87
2023-02-11T14:38:52.879Z,40.99
2023-02-11T14:41:30.987Z,39.17
2023-02-11T14:44:03.746Z,39.77
2023-02-11T14:46:36.882Z,36.89
2023-02-11T14:49:06.215Z,38.51
2023-02-11T14:51:42.780Z,38.85
2023-02-11T14:54:21.252Z,38.72
2023-02-11T14:57:08.862Z,39.04
2023-02-11T14:59:37.184Z,40.97
2023-02-11T15:02:21.863Z,38.92
2023-02-11T15:04:49.808Z,37.26
2023-02-11T15:07:18.386Z,37.17
2023-02-11T15:09:52.193Z,37.44
2023-02-11T15:12:26.808Z,37.20
2023-02-11T15:14:59.867Z,37.15
2023-02-11T15:17:32.088Z,37.36
2023-02-11T15:20:02.940Z,37.80
2023-02-11T15:22:36.784Z,37.27
2023-02-11T15:25:09.099Z,37.11
2023-02-11T15:27:49.379Z,37.25
2023-02-11T15:30:25.966Z,37.17
2023-02-11T15:32:59.246Z,37.92
2023-02-11T15:35:32.839Z,39.72
2023-02-11T15:38:04.923Z,38.99
2023-02-11T15:40:37.872Z,37.91
2023-02-11T15:43:10.979Z,37.58
2023-02-11T15:45:52.877Z,38.63
2023-02-11T15:48:56.352Z,38.45
2023-02-11T15:51:32.976Z,38.70
2023-02-11T15:54:08.353Z,39.75
2023-02-11T15:56:49.190Z,39.63
2023-02-11T15:59:27.778Z,39.97
2023-02-11T16:02:08.925Z,39.82
2023-02-11T16:04:38.003Z,38.59
2023-02-11T16:07:06.529Z,39.08
2023-02-11T16:09:36.109Z,38.55
2023-02-11T16:12:24.226Z,37.91
2023-02-11T16:14:53.399Z,38.23
2023-02-11T16:17:28.838Z,39.64
2023-02-11T16:19:56.976Z,39.08
2023-02-11T16:22:30.841Z,39.64
2023-02-11T16:25:01.498Z,39.45
2023-02-11T16:27:55.915Z,39.75
2023-02-11T16:30:33.805Z,39.26
2023-02-11T16:33:02.846Z,40.13
2023-02-11T16:35:30.665Z,39.72
2023-02-11T16:37:59.036Z,40.48
2023-02-11T16:40:32.167Z,42.71
2023-02-11T16:43:01.964Z,40.63
2023-02-11T16:45:30.621Z,41.14
2023-02-11T16:47:58.733Z,40.79
2023-02-11T16:50:27.577Z,40.70
2023-02-11T16:52:55.523Z,41.92
2023-02-11T16:55:23.348Z,42.72
2023-02-11T16:57:53.012Z,42.64
2023-02-11T17:00:23.057Z,42.83
2023-02-11T17:02:51.776Z,43.64
2023-02-11T17:05:22.977Z,44.72
2023-02-11T17:07:54.806Z,44.47
2023-02-11T17:10:23.908Z,44.46
2023-02-11T17:12:53.472Z,44.98
2023-02-11T17:15:25.411Z,44.50
2023-02-11T17:17:54.238Z,44.86
2023-02-11T17:20:22.348Z,45.73
2023-02-11T17:22:51.084Z,45.56
2023-02-11T17:25:45.897Z,46.33
2023-02-11T17:28:13.847Z,45.68
2023-02-11T17:30:47.020Z,46.22
2023-02-11T17:33:14.922Z,46.47
2023-02-11T17:35:43.536Z,46.83
2023-02-11T17:38:11.473Z,46.95
2023-02-11T17:40:40.927Z,47.03
2023-02-11T17:43:09.187Z,46.98
2023-02-11T17:45:45.978Z,47.74
2023-02-11T17:48:13.895Z,47.59
2023-02-11T17:50:43.650Z,47.13
2023-02-11T17:53:11.610Z,49.01
2023-02-11T17:55:40.227Z,50.09
2023-02-11T17:58:13.824Z,48.01
2023-02-11T18:00:44.964Z,47.24
2023-02-11T18:03:14.652Z,48.08
2023-02-11T18:05:42.535Z,47.92
2023-02-11T18:13:55.829Z,48.55
2023-02-11T18:16:27.698Z,48.31
2023-02-11T18:18:58.862Z,48.46
2023-02-11T18:21:52.021Z,50.55
2023-02-11T18:24:20.850Z,49.26
2023-02-11T18:26:50.539Z,50.02
2023-02-11T18:29:21.780Z,49.65
2023-02-11T18:31:49.632Z,49.59
2023-02-11T18:34:19.680Z,51.84
2023-02-11T18:36:48.862Z,51.98
2023-02-11T18:39:19.446Z,50.89
2023-02-11T18:41:50.831Z,50.21
2023-02-11T18:44:22.368Z,51.19
2023-02-11T18:46:51.809Z,51.58
2023-02-11T18:49:20.628Z,52.53
2023-02-11T18:51:49.808Z,51.80
2023-02-11T18:54:19.827Z,51.15
2023-02-11T18:56:48.903Z,50.85
2023-02-11T18:59:19.194Z,51.09
2023-02-11T19:01:48.103Z,50.42
2023-02-11T19:04:20.835Z,50.01
2023-02-11T19:06:49.780Z,50.22
2023-02-11T19:09:21.863Z,52.21
2023-02-11T19:11:52.887Z,51.29
2023-02-11T19:14:34.834Z,51.80
2023-02-11T19:17:06.042Z,50.86
2023-02-11T19:22:29.186Z,52.13
2023-02-11T19:24:57.129Z,51.51
2023-02-11T19:27:25.020Z,51.62
2023-02-11T19:29:52.895Z,52.47
2023-02-11T19:32:20.957Z,51.73
2023-02-11T19:34:53.197Z,50.97
2023-02-11T19:37:21.746Z,51.27
2023-02-11T19:39:49.565Z,51.59
2023-02-11T19:42:19.676Z,52.09
2023-02-11T19:44:47.582Z,50.92
2023-02-11T19:47:15.549Z,50.31
2023-02-11T19:49:43.601Z,50.27
2023-02-11T19:52:11.568Z,50.97
2023-02-11T19:54:39.841Z,50.31
2023-02-11T19:57:07.702Z,50.18
2023-02-11T19:59:35.651Z,50.97
2023-02-11T20:02:03.532Z,51.56
2023-02-11T20:04:37.009Z,50.20
2023-02-11T20:07:08.585Z,51.23
2023-02-11T20:09:36.681Z,50.90
2023-02-11T20:12:08.811Z,50.80
2023-02-11T20:14:36.771Z,51.67
2023-02-11T20:17:04.600Z,50.61
2023-02-11T20:19:35.120Z,49.17
2023-02-11T20:22:28.255Z,51.42
2023-02-11T20:24:56.944Z,52.20
2023-02-11T20:27:25.318Z,50.31
2023-02-11T20:29:53.157Z,49.99
2023-02-11T20:32:22.902Z,49.51
2023-02-11T20:34:53.216Z,49.47
2023-02-11T20:37:25.536Z,48.61
2023-02-11T20:39:54.668Z,48.32
2023-02-11T20:42:26.027Z,49.11
2023-02-11T20:44:55.480Z,50.00
2023-02-11T20:47:24.779Z,47.42
2023-02-11T20:49:55.249Z,48.47
2023-02-11T20:52:24.873Z,48.92
2023-02-11T20:54:52.906Z,49.00
2023-02-11T20:57:28.949Z,48.76
2023-02-11T20:59:57.728Z,48.45
2023-02-11T21:02:52.752Z,47.69
2023-02-11T21:05:20.609Z,48.53
2023-02-11T21:07:48.460Z,48.64
2023-02-11T21:10:16.921Z,47.44
2023-02-11T21:12:44.772Z,47.92
2023-02-11T21:15:13.935Z,49.22
2023-02-11T21:20:36.868Z,49.00
2023-02-11T21:23:05.622Z,49.22
2023-02-11T21:25:33.589Z,47.46
2023-02-11T21:28:03.933Z,48.06
2023-02-11T21:30:58.601Z,47.79
2023-02-11T21:33:29.874Z,46.99
2023-02-11T21:35:59.436Z,46.61
2023-02-11T21:38:28.836Z,47.57
2023-02-11T21:41:03.323Z,47.12
2023-02-11T21:43:31.973Z,47.16
2023-02-11T21:46:00.446Z,47.44
2023-02-11T21:48:28.844Z,49.97
2023-02-11T21:50:56.715Z,48.56
2023-02-11T21:53:28.913Z,49.31
2023-02-11T21:56:04.186Z,48.54
2023-02-11T21:58:33.175Z,48.11
2023-02-11T22:01:13.308Z,47.48
2023-02-11T22:03:42.126Z,46.84
2023-02-11T22:06:15.001Z,47.67
2023-02-11T22:08:44.932Z,47.54
2023-02-11T22:11:14.841Z,46.91
2023-02-11T22:13:43.103Z,47.77
2023-02-11T22:16:15.910Z,48.35
2023-02-11T22:18:46.446Z,48.18
2023-02-11T22:21:20.997Z,48.46
2023-02-11T22:23:50.830Z,48.59
2023-02-11T22:26:22.876Z,48.76
2023-02-11T22:28:51.756Z,48.38
2023-02-11T22:31:25.023Z,47.16
2023-02-11T22:33:53.044Z,47.65
2023-02-11T22:36:29.875Z,47.70
2023-02-11T22:39:01.810Z,46.30
2023-02-11T22:41:31.927Z,46.82
2023-02-11T22:44:01.006Z,46.09
2023-02-11T22:46:30.274Z,46.96
2023-02-11T22:49:01.908Z,46.62
2023-02-11T22:51:30.345Z,48.07
2023-02-11T22:54:01.889Z,47.10
2023-02-11T22:56:32.499Z,47.80
2023-02-11T22:59:03.310Z,47.56
2023-02-11T23:01:31.697Z,47.19
2023-02-11T23:04:03.170Z,47.65
2023-02-11T23:06:31.473Z,47.45
2023-02-11T23:09:02.950Z,47.45
2023-02-11T23:14:24.774Z,47.36
2023-02-11T23:16:52.706Z,46.60
2023-02-11T23:22:13.284Z,45.92
2023-02-11T23:24:41.127Z,46.71
2023-02-11T23:27:09.013Z,46.40
2023-02-11T23:29:37.880Z,45.91
2023-02-11T23:32:05.720Z,45.54
2023-02-11T23:37:25.684Z,46.99
2023-02-11T23:39:53.634Z,46.23
2023-02-11T23:42:22.431Z,46.95
2023-02-11T23:44:53.604Z,46.44
2023-02-11T23:47:24.500Z,47.22
2023-02-11T23:49:52.462Z,46.66
2023-02-11T23:52:21.802Z,46.26
2023-02-11T23:54:50.992Z,46.05
2023-02-11T23:57:21.033Z,45.94
2023-02-11T23:59:50.249Z,44.91
